TAF

Aerodrome Forecast TAF

TAF description (Slovak)

29.11.2020 - 02:00 UTC

TAF LZSL 290200Z 2903/2912 VRB02KT 2500 BR OVC003
    TEMPO 2903/2908 1200 BR OVC002
    PROB30 TEMPO 2903/2907 0500 FZFG OVC001
    BECMG 2908/2910 9999 SCT025=
TAF LZZI 290200Z 2903/2912 VRB02KT 9999 FEW012 BKN030
    TEMPO 2903/2912 3000 -SN BKN005 OVC020
    PROB30 TEMPO 2903/2909 1200 SN BKN003 OVC010=

28.11.2020 - 05:00 UTC (Včera)

TAF LZIB 280500Z 2806/2906 33006KT 9999 BKN014
    PROB40 TEMPO 2806/2808 VRB02KT 2500 -DZ BR OVC008
    BECMG 2811/2813 FEW020=
TAF LZKZ 280500Z 2806/2906 VRB02KT 9999 BKN014
    TEMPO 2806/2808 2500 -SG BR OVC004
    TEMPO 2811/2819 22005KT SCT020
    TEMPO 2819/2906 2000 -SN BR OVC008=
TAF LZTT 280500Z 2806/2906 VRB02KT 7000 BKN020
    TEMPO 2806/2809 2000 -SN BR BKN004 OVC014
    TEMPO 2811/2817 20005KT 9999 SCT025
    TEMPO 2817/2906 2500 BR BKN011
    TEMPO 2901/2906 1400 -SN BR BKN006=

28.11.2020 - 02:00 UTC (Včera)

TAF LZSL 280200Z 2803/2812 VRB02KT 5000 BR OVC006
    TEMPO 2803/2807 2400 -FZDZ BR OVC003
    TEMPO 2807/2811 BKN014
    BECMG 2810/2812 9999 SCT025=
TAF LZZI 280200Z 2803/2812 VRB02KT 7000 OVC007
    TEMPO 2803/2809 4000 BR OVC004
    PROB30 TEMPO 2803/2808 2200 -SN BR OVC002
    BECMG 2809/2811 9999 BKN033=

skok na menu ↑


skok na začiatok stránky ↑